createdAt,value
2019-03-31T00:00:41.790Z,65.64
2019-03-31T00:01:41.768Z,65.74
2019-03-31T00:03:21.912Z,65.98
2019-03-31T00:16:03.238Z,65.84
2019-03-31T00:17:03.263Z,65.54
2019-03-31T00:18:03.035Z,65.64
2019-03-31T00:19:03.007Z,65.95
2019-03-31T00:20:03.014Z,65.84
2019-03-31T00:21:03.022Z,65.64
2019-03-31T00:22:02.964Z,65.95
2019-03-31T00:23:03.034Z,65.88
2019-03-31T00:24:02.997Z,65.74
2019-03-31T00:25:02.944Z,65.77
2019-03-31T00:26:03.017Z,65.54
2019-03-31T00:27:02.918Z,65.64
2019-03-31T00:28:02.927Z,65.64
2019-03-31T00:29:02.930Z,65.23
2019-03-31T00:30:02.910Z,64.72
2019-03-31T00:31:03.037Z,65.13
2019-03-31T00:32:02.876Z,64.18
2019-03-31T00:33:02.842Z,63.64
2019-03-31T00:34:02.837Z,63.34
2019-03-31T00:35:02.838Z,63.44
2019-03-31T00:36:02.850Z,62.93
2019-03-31T00:37:02.835Z,63.44
2019-03-31T00:38:02.856Z,62.62
2019-03-31T00:39:02.782Z,63.23
2019-03-31T00:40:02.779Z,62.93
2019-03-31T00:41:02.784Z,62.90
2019-03-31T00:42:02.807Z,63.13
2019-03-31T00:43:02.784Z,62.82
2019-03-31T00:44:02.736Z,62.82
2019-03-31T00:45:02.742Z,62.90
2019-03-31T00:46:02.799Z,63.44
2019-03-31T00:47:02.727Z,63.03
2019-03-31T00:48:02.736Z,63.13
2019-03-31T00:49:02.753Z,63.23
2019-03-31T00:50:02.673Z,62.39
2019-03-31T00:51:02.746Z,62.70
2019-03-31T00:52:02.675Z,62.70
2019-03-31T00:53:02.683Z,63.03
2019-03-31T00:54:02.628Z,63.13
2019-03-31T00:55:02.615Z,62.82
2019-03-31T00:56:02.623Z,63.03
2019-03-31T00:57:02.612Z,63.03
2019-03-31T00:58:02.592Z,62.93
2019-03-31T00:59:02.582Z,63.03
2019-03-31T01:00:02.558Z,62.62
2019-03-31T01:01:02.548Z,63.64
2019-03-31T01:02:02.568Z,63.34
2019-03-31T01:03:02.529Z,63.85
2019-03-31T01:04:02.528Z,63.64
2019-03-31T01:05:02.513Z,63.64
2019-03-31T01:06:02.496Z,63.23
2019-03-31T01:07:02.650Z,63.16
2019-03-31T01:08:02.485Z,63.44
2019-03-31T01:09:02.463Z,64.39
2019-03-31T01:10:02.473Z,64.39
2019-03-31T01:11:02.472Z,64.49
2019-03-31T01:12:02.520Z,64.28
2019-03-31T01:13:02.430Z,64.18
2019-03-31T01:14:02.418Z,64.90
2019-03-31T01:15:02.415Z,65.00
2019-03-31T01:16:02.409Z,65.00
2019-03-31T01:17:02.415Z,64.90
2019-03-31T01:18:02.412Z,64.28
2019-03-31T01:19:02.370Z,64.83
2019-03-31T01:20:02.437Z,65.00
2019-03-31T01:21:02.342Z,65.23
2019-03-31T01:22:02.393Z,65.23
2019-03-31T01:23:02.348Z,65.84
2019-03-31T01:24:02.312Z,65.95
2019-03-31T01:25:02.316Z,65.54
2019-03-31T01:26:02.280Z,65.88
2019-03-31T01:27:02.383Z,65.23
2019-03-31T01:28:02.298Z,65.64
2019-03-31T01:29:02.249Z,65.57
2019-03-31T01:30:02.294Z,65.77
2019-03-31T01:31:02.226Z,65.98
2019-03-31T01:32:02.218Z,65.98
2019-03-31T01:33:02.218Z,65.88
2019-03-31T01:34:02.219Z,66.08
2019-03-31T01:35:02.181Z,66.08
2019-03-31T01:36:02.208Z,66.69
2019-03-31T01:37:02.161Z,66.69
2019-03-31T01:38:02.174Z,66.39
2019-03-31T01:39:02.182Z,66.62
2019-03-31T01:40:02.178Z,66.49
2019-03-31T01:41:02.203Z,66.72
2019-03-31T01:42:02.135Z,66.62
2019-03-31T01:43:02.214Z,67.03
2019-03-31T01:44:02.112Z,67.03
2019-03-31T01:45:02.128Z,67.03
2019-03-31T01:46:02.106Z,66.93
2019-03-31T01:47:02.070Z,67.13
2019-03-31T01:48:02.066Z,67.44
2019-03-31T01:49:02.035Z,67.44
2019-03-31T01:50:02.028Z,67.34
2019-03-31T01:51:02.047Z,67.44
2019-03-31T01:52:02.006Z,67.37
2019-03-31T01:53:02.014Z,67.47
2019-03-31T01:54:01.998Z,67.57
2019-03-31T01:55:01.968Z,67.37
2019-03-31T01:56:01.979Z,67.68
2019-03-31T01:57:01.956Z,67.78
2019-03-31T01:58:01.974Z,67.47
2019-03-31T01:59:01.978Z,67.57
2019-03-31T02:00:02.006Z,67.27
2019-03-31T02:01:01.917Z,67.68
2019-03-31T02:02:04.314Z,68.08
2019-03-31T02:03:02.029Z,67.88
2019-03-31T02:04:01.866Z,67.88
2019-03-31T02:05:01.865Z,68.29
2019-03-31T02:06:01.886Z,68.42
2019-03-31T02:07:01.881Z,67.98
2019-03-31T02:08:03.996Z,67.81
2019-03-31T02:09:03.858Z,69.04
2019-03-31T02:10:01.840Z,69.04
2019-03-31T02:11:01.810Z,69.24
2019-03-31T02:12:01.791Z,68.22
2019-03-31T02:13:01.890Z,69.34
2019-03-31T02:14:01.776Z,69.24
2019-03-31T02:15:01.816Z,69.14
2019-03-31T02:16:01.783Z,69.65
2019-03-31T02:17:01.740Z,69.45
2019-03-31T02:18:01.760Z,69.55
2019-03-31T02:19:01.728Z,69.65
2019-03-31T02:20:01.721Z,69.58
2019-03-31T02:21:01.701Z,69.45
2019-03-31T02:22:01.691Z,69.45
2019-03-31T02:23:01.707Z,69.34
2019-03-31T02:24:01.759Z,70.37
2019-03-31T02:25:01.663Z,69.79
2019-03-31T02:26:01.712Z,69.75
2019-03-31T02:27:01.641Z,69.68
2019-03-31T02:28:03.682Z,70.37
2019-03-31T02:29:01.631Z,70.61
2019-03-31T02:30:01.603Z,70.71
2019-03-31T02:31:01.603Z,70.61
2019-03-31T02:32:01.603Z,70.40
2019-03-31T02:33:01.576Z,70.40
2019-03-31T02:34:01.621Z,70.61
2019-03-31T02:35:01.563Z,70.40
2019-03-31T02:36:01.651Z,70.23
2019-03-31T02:37:01.578Z,70.50
2019-03-31T02:38:01.540Z,70.91
2019-03-31T02:39:01.552Z,71.32
2019-03-31T02:40:01.529Z,70.94
2019-03-31T02:41:01.473Z,70.71
2019-03-31T02:42:01.482Z,70.91
2019-03-31T02:43:01.472Z,71.22
2019-03-31T02:44:01.543Z,71.22
2019-03-31T02:45:01.446Z,71.32
2019-03-31T02:46:01.438Z,71.15
2019-03-31T02:47:01.428Z,71.45
2019-03-31T02:48:01.446Z,71.15
2019-03-31T02:49:01.444Z,71.66
2019-03-31T02:50:01.426Z,71.56
2019-03-31T02:51:01.381Z,71.56
2019-03-31T02:52:01.406Z,71.56
2019-03-31T02:53:01.442Z,71.36
2019-03-31T02:54:01.426Z,71.45
2019-03-31T02:55:01.355Z,71.39
2019-03-31T02:56:01.379Z,71.86
2019-03-31T02:57:01.305Z,71.90
2019-03-31T02:58:01.368Z,71.90
2019-03-31T02:59:01.713Z,71.86
2019-03-31T03:00:01.331Z,71.90
2019-03-31T03:01:01.300Z,71.86
2019-03-31T03:02:01.273Z,71.90
2019-03-31T03:03:01.267Z,72.00
2019-03-31T03:04:01.229Z,71.69
2019-03-31T03:05:17.711Z,72.11
2019-03-31T03:06:02.207Z,72.31
2019-03-31T03:07:01.196Z,72.31
2019-03-31T03:08:01.230Z,72.52
2019-03-31T03:09:01.217Z,72.61
2019-03-31T03:10:01.214Z,72.92
2019-03-31T03:11:01.165Z,72.52
2019-03-31T03:12:01.176Z,72.82
2019-03-31T03:13:01.141Z,73.33
2019-03-31T03:14:01.138Z,72.72
2019-03-31T03:15:01.145Z,72.31
2019-03-31T03:16:01.099Z,72.24
2019-03-31T03:17:01.103Z,73.06
2019-03-31T03:18:01.123Z,72.96
2019-03-31T03:19:01.113Z,73.03
2019-03-31T03:20:01.090Z,73.03
2019-03-31T03:21:01.077Z,73.06
2019-03-31T03:22:01.045Z,72.86
2019-03-31T03:23:01.049Z,73.36
2019-03-31T03:24:01.015Z,73.36
2019-03-31T03:25:01.051Z,73.47
2019-03-31T03:26:01.025Z,73.27
2019-03-31T03:27:01.030Z,73.68
2019-03-31T03:28:00.980Z,74.08
2019-03-31T03:29:00.994Z,73.88
2019-03-31T03:30:01.004Z,74.08
2019-03-31T03:31:01.228Z,73.16
2019-03-31T03:32:00.935Z,73.68
2019-03-31T03:33:14.955Z,74.08
2019-03-31T03:34:01.949Z,73.36
2019-03-31T03:35:01.245Z,73.68
2019-03-31T03:36:00.925Z,73.16
2019-03-31T03:37:00.877Z,73.91
2019-03-31T03:38:00.883Z,74.39
2019-03-31T03:39:00.891Z,73.91
2019-03-31T03:40:00.912Z,74.12
2019-03-31T03:41:00.872Z,74.73
2019-03-31T03:42:00.871Z,74.43
2019-03-31T03:43:00.836Z,74.63
2019-03-31T03:44:02.475Z,74.63
2019-03-31T03:45:00.830Z,74.32
2019-03-31T03:46:00.794Z,74.53
2019-03-31T03:47:00.848Z,74.43
2019-03-31T03:48:00.757Z,74.66
2019-03-31T03:49:00.880Z,74.63
2019-03-31T03:50:00.785Z,75.38
2019-03-31T03:51:00.738Z,75.08
2019-03-31T03:52:00.755Z,75.18
2019-03-31T03:53:00.743Z,74.98
2019-03-31T03:54:00.792Z,75.18
2019-03-31T03:55:01.254Z,75.38
2019-03-31T03:56:00.735Z,75.38
2019-03-31T03:57:00.747Z,75.38
2019-03-31T03:58:00.696Z,75.49
2019-03-31T03:59:00.700Z,75.59
2019-03-31T04:00:00.822Z,75.18
2019-03-31T04:01:00.655Z,75.49
2019-03-31T04:02:00.640Z,75.73
2019-03-31T04:03:00.731Z,75.52
2019-03-31T04:04:00.729Z,75.49
2019-03-31T04:05:00.674Z,75.69
2019-03-31T04:06:00.586Z,75.69
2019-03-31T04:07:00.583Z,75.83
2019-03-31T04:08:00.625Z,76.04
2019-03-31T04:09:00.589Z,75.73
2019-03-31T04:10:00.610Z,75.83
2019-03-31T04:11:00.580Z,76.14
2019-03-31T04:12:00.509Z,76.04
2019-03-31T04:13:00.515Z,76.04
2019-03-31T04:14:00.520Z,76.04
2019-03-31T04:15:00.636Z,76.04
2019-03-31T04:16:00.470Z,76.04
2019-03-31T04:17:00.490Z,75.93
2019-03-31T04:18:00.524Z,76.28
2019-03-31T04:19:00.467Z,75.97
2019-03-31T04:20:00.623Z,75.97
2019-03-31T04:21:00.442Z,75.87
2019-03-31T04:22:00.538Z,76.07
2019-03-31T04:23:00.414Z,76.07
2019-03-31T04:24:00.389Z,75.97
2019-03-31T04:25:00.729Z,75.97
2019-03-31T04:26:00.389Z,75.76
2019-03-31T04:27:00.489Z,75.76
2019-03-31T04:28:00.399Z,75.87
2019-03-31T04:29:00.328Z,75.76
2019-03-31T04:30:00.606Z,75.87
2019-03-31T04:31:00.351Z,75.87
2019-03-31T04:32:00.303Z,75.97
2019-03-31T04:33:00.308Z,75.87
2019-03-31T04:34:00.288Z,75.76
2019-03-31T04:35:00.630Z,75.97
2019-03-31T04:36:00.282Z,76.17
2019-03-31T04:37:00.266Z,75.97
2019-03-31T04:38:00.289Z,75.97
2019-03-31T04:39:00.816Z,76.07
2019-03-31T04:40:00.542Z,76.17
2019-03-31T04:41:00.268Z,76.38
2019-03-31T04:42:00.188Z,76.38
2019-03-31T04:43:00.193Z,76.38
2019-03-31T04:44:00.181Z,76.28
2019-03-31T04:45:00.401Z,76.38
2019-03-31T04:46:00.171Z,76.68
2019-03-31T04:47:00.137Z,77.00
2019-03-31T04:48:00.129Z,76.89
2019-03-31T04:49:00.112Z,77.00
2019-03-31T04:50:00.244Z,76.89
2019-03-31T04:51:00.199Z,77.00
2019-03-31T04:52:00.075Z,76.89
2019-03-31T04:53:00.157Z,77.00
2019-03-31T04:54:00.053Z,77.00
2019-03-31T04:55:00.121Z,77.00
2019-03-31T04:56:00.140Z,77.20
2019-03-31T04:57:00.059Z,77.00
2019-03-31T04:58:00.015Z,77.55
2019-03-31T04:59:00.042Z,77.44
2019-03-31T04:59:59.997Z,77.44
2019-03-31T05:00:59.996Z,77.65
2019-03-31T05:02:00.025Z,77.65
2019-03-31T05:03:00.033Z,77.55
2019-03-31T05:04:04.987Z,77.44
2019-03-31T05:05:00.942Z,77.23
2019-03-31T05:05:59.958Z,77.44
2019-03-31T05:07:00.038Z,77.65
2019-03-31T05:07:59.939Z,77.85
2019-03-31T05:08:59.951Z,78.20
2019-03-31T05:09:59.887Z,78.20
2019-03-31T05:10:59.885Z,78.30
2019-03-31T05:11:59.898Z,77.85
2019-03-31T05:12:59.895Z,78.09
2019-03-31T05:13:59.879Z,78.06
2019-03-31T05:14:59.827Z,78.09
2019-03-31T05:15:59.822Z,78.40
2019-03-31T05:16:59.949Z,78.20
2019-03-31T05:17:59.822Z,78.50
2019-03-31T05:18:59.846Z,78.09
2019-03-31T05:19:59.822Z,78.09
2019-03-31T05:20:59.763Z,78.40
2019-03-31T05:21:59.783Z,78.20
2019-03-31T05:22:59.810Z,78.61
2019-03-31T05:23:59.743Z,78.50
2019-03-31T05:24:59.737Z,78.09
2019-03-31T05:25:59.761Z,78.09
2019-03-31T05:26:59.805Z,78.71
2019-03-31T05:27:59.723Z,78.92
2019-03-31T05:28:59.687Z,78.50
2019-03-31T05:29:59.714Z,78.85
2019-03-31T05:30:59.702Z,79.26
2019-03-31T05:31:59.745Z,79.47
2019-03-31T05:32:59.644Z,78.92
2019-03-31T05:33:59.635Z,78.75
2019-03-31T05:34:59.806Z,79.16
2019-03-31T05:35:59.615Z,78.96
2019-03-31T05:36:59.625Z,78.85
2019-03-31T05:37:59.633Z,78.64
2019-03-31T05:38:59.575Z,79.36
2019-03-31T05:39:59.567Z,78.54
2019-03-31T05:40:59.559Z,79.05
2019-03-31T05:41:59.632Z,79.05
2019-03-31T05:42:59.635Z,79.05
2019-03-31T05:44:05.494Z,79.47
2019-03-31T05:45:00.534Z,79.67
2019-03-31T05:45:59.565Z,79.09
2019-03-31T05:46:59.570Z,79.30
2019-03-31T05:47:59.527Z,79.81
2019-03-31T05:48:59.476Z,79.77
2019-03-31T05:49:59.544Z,79.91
2019-03-31T05:50:59.447Z,79.47
2019-03-31T05:51:59.514Z,79.67
2019-03-31T05:52:59.460Z,79.05
2019-03-31T05:53:59.470Z,79.26
2019-03-31T05:54:59.409Z,79.47
2019-03-31T05:55:59.399Z,78.96
2019-03-31T05:56:59.387Z,78.96
2019-03-31T05:57:59.395Z,79.12
2019-03-31T05:58:59.365Z,78.20
2019-03-31T05:59:59.369Z,78.85
2019-03-31T06:00:59.358Z,78.61
2019-03-31T06:01:59.339Z,78.30
2019-03-31T06:02:59.423Z,78.40
2019-03-31T06:03:59.325Z,77.68
2019-03-31T06:04:59.324Z,77.92
2019-03-31T06:05:59.304Z,78.54
2019-03-31T06:06:59.295Z,78.13
2019-03-31T06:07:59.347Z,78.44
2019-03-31T06:08:59.304Z,78.33
2019-03-31T06:09:59.259Z,78.50
2019-03-31T06:10:59.236Z,78.09
2019-03-31T06:11:59.277Z,77.58
2019-03-31T06:12:59.229Z,77.78
2019-03-31T06:13:59.206Z,77.27
2019-03-31T06:14:59.195Z,77.37
2019-03-31T06:15:59.209Z,76.93
2019-03-31T06:16:59.181Z,77.23
2019-03-31T06:17:59.315Z,77.03
2019-03-31T06:18:59.197Z,76.65
2019-03-31T06:19:59.230Z,76.62
2019-03-31T06:20:59.141Z,76.72
2019-03-31T06:21:59.111Z,76.62
2019-03-31T06:22:59.143Z,76.62
2019-03-31T06:23:59.104Z,76.21
2019-03-31T06:24:59.083Z,76.31
2019-03-31T06:25:59.085Z,76.10
2019-03-31T06:26:59.088Z,76.10
2019-03-31T06:27:59.180Z,76.10
2019-03-31T06:28:59.060Z,76.21
2019-03-31T06:29:59.086Z,76.00
2019-03-31T06:30:59.075Z,76.14
2019-03-31T06:31:59.037Z,76.25
2019-03-31T06:32:59.124Z,76.55
2019-03-31T06:33:59.020Z,76.69
2019-03-31T06:34:59.025Z,76.90
2019-03-31T06:37:00.124Z,77.31
2019-03-31T06:37:59.003Z,77.00
2019-03-31T06:38:58.944Z,77.00
2019-03-31T06:39:58.918Z,76.90
2019-03-31T06:40:58.919Z,76.69
2019-03-31T06:41:58.932Z,76.59
2019-03-31T06:42:58.923Z,77.10
2019-03-31T06:43:58.891Z,77.31
2019-03-31T06:44:58.867Z,77.00
2019-03-31T06:45:58.861Z,77.06
2019-03-31T06:46:58.849Z,77.06
2019-03-31T06:47:58.829Z,76.35
2019-03-31T06:48:58.858Z,76.45
2019-03-31T06:49:58.822Z,76.28
2019-03-31T06:50:58.808Z,76.45
2019-03-31T06:51:58.796Z,76.69
2019-03-31T06:52:58.814Z,76.38
2019-03-31T06:53:58.844Z,76.28
2019-03-31T06:54:58.823Z,76.14
2019-03-31T06:55:58.771Z,75.73
2019-03-31T06:56:58.799Z,75.42
2019-03-31T06:57:58.740Z,74.91
2019-03-31T06:58:58.758Z,75.12
2019-03-31T06:59:58.785Z,74.91
2019-03-31T07:00:58.724Z,75.12
2019-03-31T07:01:58.721Z,74.91
2019-03-31T07:02:58.682Z,74.70
2019-03-31T07:03:58.690Z,74.60
2019-03-31T07:05:01.333Z,75.12
2019-03-31T07:05:58.785Z,74.70
2019-03-31T07:06:58.699Z,75.12
2019-03-31T07:07:58.636Z,74.29
2019-03-31T07:08:58.658Z,74.29
2019-03-31T07:09:58.616Z,74.70
2019-03-31T07:10:58.629Z,74.15
2019-03-31T07:11:58.651Z,74.57
2019-03-31T07:12:59.836Z,73.64
2019-03-31T07:14:00.595Z,73.85
2019-03-31T07:14:58.719Z,73.85
2019-03-31T07:15:58.601Z,73.44
2019-03-31T07:16:58.521Z,73.64
2019-03-31T07:17:58.553Z,73.44
2019-03-31T07:18:58.505Z,73.33
2019-03-31T07:19:58.517Z,72.99
2019-03-31T07:20:58.478Z,72.89
2019-03-31T07:21:58.496Z,73.23
2019-03-31T07:22:58.477Z,73.30
2019-03-31T07:23:58.490Z,72.89
2019-03-31T07:24:58.549Z,72.72
2019-03-31T07:25:58.423Z,72.58
2019-03-31T07:26:58.440Z,73.10
2019-03-31T07:27:58.444Z,72.68
2019-03-31T07:28:58.394Z,73.10
2019-03-31T07:29:58.409Z,73.19
2019-03-31T07:30:59.480Z,72.03
2019-03-31T07:31:58.368Z,71.42
2019-03-31T07:32:58.383Z,71.39
2019-03-31T07:33:58.360Z,71.48
2019-03-31T07:34:58.359Z,70.46
2019-03-31T07:35:59.430Z,70.53
2019-03-31T07:36:58.305Z,70.32
2019-03-31T07:37:58.333Z,69.95
2019-03-31T07:38:58.451Z,70.22
2019-03-31T07:41:12.108Z,70.12
2019-03-31T07:41:59.581Z,69.98
2019-03-31T07:42:58.326Z,69.68
2019-03-31T07:43:59.488Z,69.78
2019-03-31T07:44:58.354Z,70.19
2019-03-31T07:45:58.242Z,69.68
2019-03-31T07:46:58.260Z,69.68
2019-03-31T07:47:58.184Z,69.37
2019-03-31T07:48:58.186Z,69.13
2019-03-31T07:49:58.168Z,69.06
2019-03-31T07:50:58.173Z,69.27
2019-03-31T07:51:58.146Z,68.24
2019-03-31T07:52:58.140Z,68.76
2019-03-31T07:53:58.129Z,69.37
2019-03-31T07:54:58.127Z,68.35
2019-03-31T07:55:58.119Z,69.17
2019-03-31T07:56:58.099Z,69.57
2019-03-31T07:57:58.082Z,68.99
2019-03-31T07:58:58.182Z,69.98
2019-03-31T07:59:58.096Z,69.51
2019-03-31T08:00:58.111Z,69.57
2019-03-31T08:02:00.029Z,69.81
2019-03-31T08:03:00.307Z,69.68
2019-03-31T08:03:58.019Z,68.45
2019-03-31T08:04:58.079Z,68.76
2019-03-31T08:05:58.067Z,69.27
2019-03-31T08:06:57.999Z,68.14
2019-03-31T08:07:57.990Z,67.73
2019-03-31T08:08:57.964Z,67.73
2019-03-31T08:09:57.955Z,67.60
2019-03-31T08:10:57.947Z,67.63
2019-03-31T08:11:57.954Z,67.90
2019-03-31T08:12:57.979Z,67.29
2019-03-31T08:13:57.935Z,67.40
2019-03-31T08:14:57.897Z,66.67
2019-03-31T08:15:57.895Z,67.19
2019-03-31T08:16:57.909Z,67.19
2019-03-31T08:17:57.866Z,67.19
2019-03-31T08:18:57.866Z,67.19
2019-03-31T08:19:57.878Z,67.40
2019-03-31T08:20:57.835Z,66.88
2019-03-31T08:21:57.828Z,66.67
2019-03-31T08:22:57.845Z,66.16
2019-03-31T08:23:57.816Z,66.13
2019-03-31T08:24:57.801Z,66.03
2019-03-31T08:25:57.791Z,66.00
2019-03-31T08:26:57.780Z,64.98
2019-03-31T08:27:57.785Z,64.57
2019-03-31T08:28:58.707Z,64.77
2019-03-31T08:30:58.934Z,65.39
2019-03-31T08:31:57.769Z,65.49
2019-03-31T08:32:57.774Z,65.93
2019-03-31T08:34:58.916Z,65.86
2019-03-31T08:35:57.686Z,66.24
2019-03-31T08:37:01.811Z,66.37
2019-03-31T08:37:57.691Z,66.13
2019-03-31T08:38:57.868Z,66.13
2019-03-31T08:39:57.636Z,65.90
2019-03-31T08:40:57.737Z,66.00
2019-03-31T08:41:57.630Z,65.97
2019-03-31T08:42:57.633Z,66.07
2019-03-31T08:43:57.616Z,65.33
2019-03-31T08:45:58.770Z,64.84
2019-03-31T08:46:57.648Z,65.25
2019-03-31T08:47:57.638Z,64.95
2019-03-31T08:48:57.572Z,65.56
2019-03-31T08:49:57.522Z,65.69
2019-03-31T08:50:57.510Z,65.42
2019-03-31T08:51:57.512Z,65.83
2019-03-31T08:52:57.490Z,65.93
2019-03-31T08:53:57.509Z,66.13
2019-03-31T08:54:57.476Z,65.93
2019-03-31T08:55:57.485Z,65.72
2019-03-31T08:56:57.446Z,66.16
2019-03-31T08:57:57.450Z,66.06
2019-03-31T08:58:57.444Z,66.06
2019-03-31T09:00:57.828Z,66.27
2019-03-31T09:01:57.413Z,66.16
2019-03-31T09:02:57.392Z,66.67
2019-03-31T09:04:58.468Z,66.88
2019-03-31T09:06:02.175Z,66.57
2019-03-31T09:06:58.365Z,66.47
2019-03-31T09:07:57.379Z,66.88
2019-03-31T09:08:57.314Z,66.57
2019-03-31T09:09:57.328Z,66.67
2019-03-31T09:10:57.301Z,66.47
2019-03-31T09:11:57.306Z,66.34
2019-03-31T09:12:57.277Z,66.85
2019-03-31T09:13:59.965Z,66.85
2019-03-31T09:14:57.271Z,66.13
2019-03-31T09:15:57.280Z,66.98
2019-03-31T09:16:57.267Z,66.98
2019-03-31T09:17:57.230Z,67.29
2019-03-31T09:18:57.222Z,67.29
2019-03-31T09:19:57.219Z,67.16
2019-03-31T09:20:57.232Z,66.37
2019-03-31T09:21:57.186Z,66.67
2019-03-31T09:22:57.173Z,67.19
2019-03-31T09:23:57.165Z,67.83
2019-03-31T09:24:57.151Z,68.65
2019-03-31T09:25:57.204Z,68.35
2019-03-31T09:26:57.197Z,68.14
2019-03-31T09:27:57.116Z,67.97
2019-03-31T09:28:57.117Z,68.14
2019-03-31T09:29:57.122Z,68.68
2019-03-31T09:30:57.127Z,69.20
2019-03-31T09:31:57.073Z,69.40
2019-03-31T09:32:57.081Z,69.20
2019-03-31T09:33:57.049Z,70.02
2019-03-31T09:34:57.054Z,70.32
2019-03-31T09:35:57.064Z,69.92
2019-03-31T09:36:57.054Z,70.64
2019-03-31T09:37:57.010Z,70.84
2019-03-31T09:38:57.009Z,70.40
2019-03-31T09:39:56.995Z,70.84
2019-03-31T09:40:57.016Z,70.64
2019-03-31T09:41:56.995Z,70.84
2019-03-31T09:42:56.952Z,70.60
2019-03-31T09:43:56.950Z,70.47
2019-03-31T09:44:56.946Z,69.54
2019-03-31T09:45:56.923Z,69.24
2019-03-31T09:46:56.977Z,68.73
2019-03-31T09:47:56.923Z,67.97
2019-03-31T09:48:56.894Z,68.25
2019-03-31T09:49:56.892Z,67.94
2019-03-31T09:50:56.868Z,67.13
2019-03-31T09:51:56.876Z,66.78
2019-03-31T09:52:56.863Z,66.17
2019-03-31T09:53:56.888Z,66.10
2019-03-31T09:54:57.136Z,66.10
2019-03-31T09:55:56.826Z,65.36
2019-03-31T09:56:56.901Z,65.69
2019-03-31T09:57:56.804Z,65.49
2019-03-31T09:58:56.964Z,65.66
2019-03-31T09:59:56.964Z,65.56
2019-03-31T10:00:57.467Z,65.36
2019-03-31T10:01:56.841Z,65.05
2019-03-31T10:03:00.950Z,65.05
2019-03-31T10:03:56.752Z,65.46
2019-03-31T10:04:56.746Z,66.10
2019-03-31T10:06:09.939Z,66.24
2019-03-31T10:06:57.829Z,66.64
2019-03-31T10:07:56.699Z,66.24
2019-03-31T10:08:56.707Z,66.24
2019-03-31T10:09:56.681Z,66.31
2019-03-31T10:10:56.701Z,65.90
2019-03-31T10:11:56.657Z,65.69
2019-03-31T10:12:56.708Z,65.69
2019-03-31T10:13:56.634Z,66.00
2019-03-31T10:14:56.739Z,65.39
2019-03-31T10:15:56.630Z,65.39
2019-03-31T10:16:56.618Z,65.77
2019-03-31T10:17:56.626Z,64.74
2019-03-31T10:18:56.582Z,63.41
2019-03-31T10:19:56.583Z,64.47
2019-03-31T10:20:57.013Z,65.18
2019-03-31T10:21:56.561Z,65.08
2019-03-31T10:22:56.564Z,65.05
2019-03-31T10:23:56.519Z,64.03
2019-03-31T10:24:56.509Z,63.39
2019-03-31T10:25:56.514Z,63.18
2019-03-31T10:26:56.834Z,61.54
2019-03-31T10:27:56.497Z,61.72
2019-03-31T10:29:57.621Z,61.10
2019-03-31T10:30:56.453Z,60.21
2019-03-31T10:31:56.431Z,60.42
2019-03-31T10:32:56.422Z,60.42
2019-03-31T10:33:56.474Z,59.12
2019-03-31T10:34:56.402Z,59.50
2019-03-31T10:35:56.378Z,58.61
2019-03-31T10:36:56.687Z,58.81
2019-03-31T10:37:56.370Z,58.81
2019-03-31T10:38:56.411Z,58.91
2019-03-31T10:39:56.341Z,58.81
2019-03-31T10:40:56.368Z,58.81
2019-03-31T10:41:56.354Z,58.70
2019-03-31T10:42:56.363Z,58.89
2019-03-31T10:43:56.335Z,58.98
2019-03-31T10:44:56.296Z,58.65
2019-03-31T10:45:56.306Z,58.48
2019-03-31T10:46:58.509Z,58.58
2019-03-31T10:47:56.275Z,58.89
2019-03-31T10:48:56.298Z,58.58
2019-03-31T10:49:56.251Z,58.78
2019-03-31T10:50:56.237Z,58.48
2019-03-31T10:51:56.211Z,58.68
2019-03-31T10:52:56.254Z,58.65
2019-03-31T10:53:56.225Z,57.81
2019-03-31T10:54:56.180Z,55.26
2019-03-31T10:55:56.244Z,55.13
2019-03-31T10:56:56.178Z,55.33
2019-03-31T10:57:56.146Z,54.82
2019-03-31T10:58:56.250Z,55.30
2019-03-31T10:59:56.133Z,55.33
2019-03-31T11:00:56.200Z,55.61
2019-03-31T11:01:56.125Z,55.61
2019-03-31T11:02:56.144Z,54.49
2019-03-31T11:03:56.097Z,54.08
2019-03-31T11:04:56.089Z,54.59
2019-03-31T11:05:56.096Z,53.88
2019-03-31T11:06:59.112Z,54.79
2019-03-31T11:07:57.040Z,54.67
2019-03-31T11:08:56.164Z,53.52
2019-03-31T11:09:56.019Z,53.22
2019-03-31T11:10:56.012Z,52.60
2019-03-31T11:11:56.031Z,51.56
2019-03-31T11:12:56.002Z,51.89
2019-03-31T11:13:56.049Z,52.20
2019-03-31T11:14:55.966Z,52.81
2019-03-31T11:15:57.539Z,52.20
2019-03-31T11:16:55.980Z,52.50
2019-03-31T11:17:55.960Z,51.99
2019-03-31T11:18:55.953Z,52.22
2019-03-31T11:19:55.931Z,53.03
2019-03-31T11:20:55.899Z,52.83
2019-03-31T11:21:57.918Z,52.53
2019-03-31T11:22:55.895Z,53.24
2019-03-31T11:23:55.916Z,53.14
2019-03-31T11:24:55.936Z,53.03
2019-03-31T11:25:55.909Z,52.29
2019-03-31T11:26:55.841Z,51.33
2019-03-31T11:27:55.844Z,48.41
2019-03-31T11:28:55.822Z,47.86
2019-03-31T11:29:55.854Z,48.61
2019-03-31T11:30:55.835Z,48.05
2019-03-31T11:31:57.922Z,49.90
2019-03-31T11:33:57.492Z,50.56
2019-03-31T11:34:57.942Z,51.28
2019-03-31T11:35:55.809Z,50.59
2019-03-31T11:36:55.888Z,47.58
2019-03-31T11:37:55.828Z,46.31
2019-03-31T11:38:55.771Z,45.83
2019-03-31T11:39:55.905Z,46.05
2019-03-31T11:40:56.146Z,45.56
2019-03-31T11:41:55.693Z,45.68
2019-03-31T11:42:58.253Z,46.11
2019-03-31T11:43:55.710Z,46.77
2019-03-31T11:44:55.730Z,47.08
2019-03-31T11:45:59.110Z,47.71
2019-03-31T11:46:55.634Z,47.50
2019-03-31T11:47:56.785Z,47.50
2019-03-31T11:49:01.292Z,47.28
2019-03-31T11:49:55.641Z,45.94
2019-03-31T11:50:55.655Z,44.69
2019-03-31T11:51:55.606Z,43.79
2019-03-31T11:53:56.783Z,44.71
2019-03-31T11:54:55.659Z,44.51
2019-03-31T11:55:55.573Z,44.38
2019-03-31T11:56:55.591Z,43.73
2019-03-31T11:57:55.697Z,41.80
2019-03-31T11:58:55.549Z,39.42
2019-03-31T11:59:55.522Z,38.37
2019-03-31T12:00:55.617Z,37.62
2019-03-31T12:01:55.473Z,36.47
2019-03-31T12:02:55.467Z,36.25
2019-03-31T12:03:55.536Z,35.73
2019-03-31T12:04:55.580Z,34.92
2019-03-31T12:05:55.482Z,35.23
2019-03-31T12:06:55.453Z,34.99
2019-03-31T12:07:55.473Z,34.57
2019-03-31T12:08:55.473Z,32.83
2019-03-31T12:09:57.483Z,31.99
2019-03-31T12:10:55.379Z,33.75
2019-03-31T12:11:55.419Z,33.98
2019-03-31T12:12:55.403Z,35.73
2019-03-31T12:13:55.509Z,35.06
2019-03-31T12:15:00.715Z,36.29
2019-03-31T12:15:56.359Z,35.82
2019-03-31T12:16:55.330Z,36.00
2019-03-31T12:17:55.437Z,35.51
2019-03-31T12:18:55.394Z,36.36
2019-03-31T12:19:55.305Z,36.25
2019-03-31T12:20:55.337Z,36.49
2019-03-31T12:21:55.368Z,37.32
2019-03-31T12:22:55.354Z,37.93
2019-03-31T12:23:55.267Z,37.10
2019-03-31T12:24:55.422Z,37.52
2019-03-31T12:25:55.283Z,35.99
2019-03-31T12:26:55.283Z,37.62
2019-03-31T12:27:55.236Z,37.07
2019-03-31T12:28:55.259Z,35.28
2019-03-31T12:31:58.105Z,33.43
2019-03-31T12:33:03.347Z,32.07
2019-03-31T12:33:55.444Z,31.00
2019-03-31T12:35:12.288Z,30.34
2019-03-31T12:37:56.298Z,28.60
2019-03-31T12:38:55.083Z,28.69
2019-03-31T12:39:55.179Z,29.06
2019-03-31T12:40:55.099Z,28.22
2019-03-31T12:41:56.629Z,27.78
2019-03-31T12:42:55.116Z,26.18
2019-03-31T12:43:55.203Z,27.76
2019-03-31T12:44:57.786Z,29.14
2019-03-31T12:45:59.241Z,30.08
2019-03-31T12:46:56.510Z,29.33
2019-03-31T12:48:11.445Z,28.91
2019-03-31T12:48:58.073Z,29.16
2019-03-31T12:49:56.079Z,28.82
2019-03-31T12:51:56.589Z,29.92
2019-03-31T12:53:15.948Z,31.38
2019-03-31T12:53:54.985Z,32.50
2019-03-31T12:54:54.977Z,34.64
2019-03-31T12:56:00.208Z,32.67
2019-03-31T12:56:54.992Z,30.66
2019-03-31T12:58:56.061Z,27.81
2019-03-31T13:00:56.213Z,27.99
2019-03-31T13:01:56.967Z,27.95
2019-03-31T13:02:56.976Z,26.51
2019-03-31T13:03:56.894Z,25.99
2019-03-31T13:04:54.878Z,25.48
2019-03-31T13:05:58.857Z,26.56
2019-03-31T13:07:56.959Z,25.79
2019-03-31T13:08:54.860Z,24.40
2019-03-31T13:09:54.906Z,24.44
2019-03-31T13:10:54.782Z,25.98
2019-03-31T13:11:54.789Z,26.50
2019-03-31T13:12:54.789Z,26.20
2019-03-31T13:13:56.842Z,26.28
2019-03-31T13:14:54.844Z,26.51
2019-03-31T13:15:55.704Z,26.61
2019-03-31T13:16:54.743Z,26.52
2019-03-31T13:17:54.737Z,25.84
2019-03-31T13:18:54.744Z,26.54
2019-03-31T13:20:56.594Z,25.74
2019-03-31T13:21:55.740Z,26.43
2019-03-31T13:23:55.785Z,27.00
2019-03-31T13:24:56.732Z,27.31